sensor_id;sensor_type;location;lat;lon;timestamp;pressure;altitude;pressure_sealevel;temperature;humidity
61324;BME280;47203;48.428;11.974;2023-03-04T00:00:17;97117.94;;;9.29;39.96
61324;BME280;47203;48.428;11.974;2023-03-04T00:02:21;97121.63;;;9.28;39.92
61324;BME280;47203;48.428;11.974;2023-03-04T00:04:25;97121.63;;;9.28;39.76
61324;BME280;47203;48.428;11.974;2023-03-04T00:06:30;97120.81;;;9.27;40.04
61324;BME280;47203;48.428;11.974;2023-03-04T00:08:34;97120.03;;;9.26;39.82
61324;BME280;47203;48.428;11.974;2023-03-04T00:10:39;97121.88;;;9.26;40.07
61324;BME280;47203;48.428;11.974;2023-03-04T00:12:46;97123.41;;;9.22;40.02
61324;BME280;47203;48.428;11.974;2023-03-04T00:14:51;97121.03;;;9.20;39.91
61324;BME280;47203;48.428;11.974;2023-03-04T00:16:55;97132.56;;;9.19;40.14
61324;BME280;47203;48.428;11.974;2023-03-04T00:19:00;97128.34;;;9.18;40.05
61324;BME280;47203;48.428;11.974;2023-03-04T00:21:04;97127.56;;;9.18;39.76
61324;BME280;47203;48.428;11.974;2023-03-04T00:23:09;97121.75;;;9.16;39.77
61324;BME280;47203;48.428;11.974;2023-03-04T00:25:14;97118.81;;;9.12;40.00
61324;BME280;47203;48.428;11.974;2023-03-04T00:27:18;97124.31;;;9.11;40.03
61324;BME280;47203;48.428;11.974;2023-03-04T00:29:25;97130.06;;;9.07;40.03
61324;BME280;47203;48.428;11.974;2023-03-04T00:31:29;97136.34;;;9.06;39.96
61324;BME280;47203;48.428;11.974;2023-03-04T00:33:34;97130.06;;;9.07;40.01
61324;BME280;47203;48.428;11.974;2023-03-04T00:35:39;97131.66;;;9.08;40.01
61324;BME280;47203;48.428;11.974;2023-03-04T00:37:43;97131.09;;;9.06;39.95
61324;BME280;47203;48.428;11.974;2023-03-04T00:39:48;97132.13;;;9.05;40.00
61324;BME280;47203;48.428;11.974;2023-03-04T00:41:52;97131.31;;;9.05;39.96
61324;BME280;47203;48.428;11.974;2023-03-04T00:43:57;97134.44;;;9.02;39.91
61324;BME280;47203;48.428;11.974;2023-03-04T00:46:03;97135.19;;;8.97;40.00
61324;BME280;47203;48.428;11.974;2023-03-04T00:48:09;97132.81;;;8.96;40.08
61324;BME280;47203;48.428;11.974;2023-03-04T00:50:13;97132.00;;;8.95;39.98
61324;BME280;47203;48.428;11.974;2023-03-04T00:52:17;97127.78;;;8.94;39.97
61324;BME280;47203;48.428;11.974;2023-03-04T00:54:22;97128.03;;;8.93;40.23
61324;BME280;47203;48.428;11.974;2023-03-04T00:56:26;97132.25;;;8.94;39.88
61324;BME280;47203;48.428;11.974;2023-03-04T00:58:31;97130.66;;;8.93;40.26
61324;BME280;47203;48.428;11.974;2023-03-04T01:00:35;97128.28;;;8.91;40.28
61324;BME280;47203;48.428;11.974;2023-03-04T01:02:42;97126.94;;;8.88;40.32
61324;BME280;47203;48.428;11.974;2023-03-04T01:04:47;97126.84;;;8.83;40.13
61324;BME280;47203;48.428;11.974;2023-03-04T01:06:52;97124.94;;;8.79;40.22
61324;BME280;47203;48.428;11.974;2023-03-04T01:08:56;97117.56;;;8.76;40.30
61324;BME280;47203;48.428;11.974;2023-03-04T01:11:00;97122.53;;;8.72;40.13
61324;BME280;47203;48.428;11.974;2023-03-04T01:13:05;97115.91;;;8.69;40.16
61324;BME280;47203;48.428;11.974;2023-03-04T01:15:10;97114.56;;;8.67;40.34
61324;BME280;47203;48.428;11.974;2023-03-04T01:17:15;97112.44;;;8.64;40.33
61324;BME280;47203;48.428;11.974;2023-03-04T01:19:22;97110.81;;;8.63;40.52
61324;BME280;47203;48.428;11.974;2023-03-04T01:21:26;97104.00;;;8.62;40.33
61324;BME280;47203;48.428;11.974;2023-03-04T01:23:31;97105.34;;;8.64;40.23
61324;BME280;47203;48.428;11.974;2023-03-04T01:25:35;97101.69;;;8.65;40.41
61324;BME280;47203;48.428;11.974;2023-03-04T01:27:39;97102.47;;;8.66;40.37
61324;BME280;47203;48.428;11.974;2023-03-04T01:29:44;97101.94;;;8.64;40.37
61324;BME280;47203;48.428;11.974;2023-03-04T01:31:49;97101.94;;;8.64;40.23
61324;BME280;47203;48.428;11.974;2023-03-04T01:33:53;97106.63;;;8.62;40.13
61324;BME280;47203;48.428;11.974;2023-03-04T01:36:00;97101.63;;;8.60;40.27
61324;BME280;47203;48.428;11.974;2023-03-04T01:38:05;97100.81;;;8.60;40.38
61324;BME280;47203;48.428;11.974;2023-03-04T01:40:10;97097.41;;;8.59;40.24
61324;BME280;47203;48.428;11.974;2023-03-04T01:42:16;97098.19;;;8.60;40.25
61324;BME280;47203;48.428;11.974;2023-03-04T01:44:21;97106.06;;;8.60;40.27
61324;BME280;47203;48.428;11.974;2023-03-04T01:46:26;97097.41;;;8.59;40.30
61324;BME280;47203;48.428;11.974;2023-03-04T01:48:33;97091.91;;;8.61;40.40
61324;BME280;47203;48.428;11.974;2023-03-04T01:50:38;97093.75;;;8.60;40.19
61324;BME280;47203;48.428;11.974;2023-03-04T01:52:45;97090.31;;;8.60;40.10
61324;BME280;47203;48.428;11.974;2023-03-04T01:54:50;97087.69;;;8.60;40.07
61324;BME280;47203;48.428;11.974;2023-03-04T01:56:54;97083.97;;;8.55;40.18
61324;BME280;47203;48.428;11.974;2023-03-04T01:59:07;97084.22;;;8.54;40.34
61324;BME280;47203;48.428;11.974;2023-03-04T02:01:12;97080.25;;;8.51;40.40
61324;BME280;47203;48.428;11.974;2023-03-04T02:03:17;97083.13;;;8.50;40.30
61324;BME280;47203;48.428;11.974;2023-03-04T02:05:22;97074.69;;;8.48;40.35
61324;BME280;47203;48.428;11.974;2023-03-04T02:07:27;97080.97;;;8.47;40.54
61324;BME280;47203;48.428;11.974;2023-03-04T02:09:37;97074.94;;;8.46;40.31
61324;BME280;47203;48.428;11.974;2023-03-04T02:11:41;97079.38;;;8.46;40.33
61324;BME280;47203;48.428;11.974;2023-03-04T02:13:46;97078.78;;;8.44;40.49
61324;BME280;47203;48.428;11.974;2023-03-04T02:15:50;97081.91;;;8.41;40.49
61324;BME280;47203;48.428;11.974;2023-03-04T02:17:56;97072.44;;;8.39;40.47
61324;BME280;47203;48.428;11.974;2023-03-04T02:20:02;97077.13;;;8.37;40.37
61324;BME280;47203;48.428;11.974;2023-03-04T02:22:08;97074.75;;;8.36;40.29
61324;BME280;47203;48.428;11.974;2023-03-04T02:24:13;97070.78;;;8.33;40.42
61324;BME280;47203;48.428;11.974;2023-03-04T02:26:22;97067.84;;;8.30;40.43
61324;BME280;47203;48.428;11.974;2023-03-04T02:28:27;97068.34;;;8.27;40.39
61324;BME280;47203;48.428;11.974;2023-03-04T02:30:32;97072.22;;;8.24;40.30
61324;BME280;47203;48.428;11.974;2023-03-04T02:32:36;97070.63;;;8.23;40.65
61324;BME280;47203;48.428;11.974;2023-03-04T02:34:44;97063.00;;;8.21;40.64
61324;BME280;47203;48.428;11.974;2023-03-04T02:36:49;97068.50;;;8.20;40.51
61324;BME280;47203;48.428;11.974;2023-03-04T02:38:55;97065.88;;;8.20;40.60
61324;BME280;47203;48.428;11.974;2023-03-04T02:41:04;97068.97;;;8.17;40.57
61324;BME280;47203;48.428;11.974;2023-03-04T02:43:12;97066.34;;;8.17;40.56
61324;BME280;47203;48.428;11.974;2023-03-04T02:45:29;97062.13;;;8.16;40.43
61324;BME280;47203;48.428;11.974;2023-03-04T02:47:34;97063.97;;;8.15;40.69
61324;BME280;47203;48.428;11.974;2023-03-04T02:49:39;97070.00;;;8.16;40.79
61324;BME280;47203;48.428;11.974;2023-03-04T02:51:44;97061.91;;;8.17;40.63
61324;BME280;47203;48.428;11.974;2023-03-04T02:53:49;97071.13;;;8.20;40.64
61324;BME280;47203;48.428;11.974;2023-03-04T02:55:56;97062.47;;;8.19;40.63
61324;BME280;47203;48.428;11.974;2023-03-04T02:58:04;97069.06;;;8.22;40.54
61324;BME280;47203;48.428;11.974;2023-03-04T03:00:13;97061.91;;;8.17;40.57
61324;BME280;47203;48.428;11.974;2023-03-04T03:02:17;97066.25;;;8.12;40.71
61324;BME280;47203;48.428;11.974;2023-03-04T03:04:22;97062.56;;;8.08;40.69
61324;BME280;47203;48.428;11.974;2023-03-04T03:06:27;97069.59;;;8.07;40.47
61324;BME280;47203;48.428;11.974;2023-03-04T03:08:32;97065.41;;;8.06;40.41
61324;BME280;47203;48.428;11.974;2023-03-04T03:10:36;97069.84;;;8.06;40.54
61324;BME280;47203;48.428;11.974;2023-03-04T03:12:41;97065.66;;;8.04;40.61
61324;BME280;47203;48.428;11.974;2023-03-04T03:14:46;97068.50;;;8.03;40.68
61324;BME280;47203;48.428;11.974;2023-03-04T03:16:55;97066.91;;;8.02;40.66
61324;BME280;47203;48.428;11.974;2023-03-04T03:19:00;97063.72;;;8.00;40.72
61324;BME280;47203;48.428;11.974;2023-03-04T03:21:05;97065.56;;;7.99;40.60
61324;BME280;47203;48.428;11.974;2023-03-04T03:23:09;97072.31;;;7.95;40.78
61324;BME280;47203;48.428;11.974;2023-03-04T03:25:14;97077.00;;;7.93;40.86
61324;BME280;47203;48.428;11.974;2023-03-04T03:27:19;97072.78;;;7.92;40.80
61324;BME280;47203;48.428;11.974;2023-03-04T03:29:24;97071.19;;;7.91;40.65
61324;BME280;47203;48.428;11.974;2023-03-04T03:31:28;97072.47;;;7.89;40.64
61324;BME280;47203;48.428;11.974;2023-03-04T03:33:35;97070.88;;;7.88;40.69
61324;BME280;47203;48.428;11.974;2023-03-04T03:35:40;97070.88;;;7.88;40.86
61324;BME280;47203;48.428;11.974;2023-03-04T03:37:45;97079.28;;;7.90;40.83
61324;BME280;47203;48.428;11.974;2023-03-04T03:39:50;97073.81;;;7.91;40.55
61324;BME280;47203;48.428;11.974;2023-03-04T03:41:54;97072.78;;;7.92;40.59
61324;BME280;47203;48.428;11.974;2023-03-04T03:43:59;97077.00;;;7.93;40.84
61324;BME280;47203;48.428;11.974;2023-03-04T03:46:03;97070.72;;;7.94;40.70
61324;BME280;47203;48.428;11.974;2023-03-04T03:48:08;97068.34;;;7.93;40.77
61324;BME280;47203;48.428;11.974;2023-03-04T03:50:15;97070.16;;;7.92;40.52
61324;BME280;47203;48.428;11.974;2023-03-04T03:52:19;97075.66;;;7.91;40.75
61324;BME280;47203;48.428;11.974;2023-03-04T03:54:24;97072.47;;;7.89;40.60
61324;BME280;47203;48.428;11.974;2023-03-04T03:56:28;97069.06;;;7.88;40.77
61324;BME280;47203;48.428;11.974;2023-03-04T03:58:33;97074.53;;;7.86;40.61
61324;BME280;47203;48.428;11.974;2023-03-04T04:00:37;97073.16;;;7.84;40.66
61324;BME280;47203;48.428;11.974;2023-03-04T04:02:42;97066.38;;;7.83;40.64
61324;BME280;47203;48.428;11.974;2023-03-04T04:04:46;97066.03;;;7.79;40.75
61324;BME280;47203;48.428;11.974;2023-03-04T04:06:53;97069.47;;;7.80;40.71
61324;BME280;47203;48.428;11.974;2023-03-04T04:08:58;97060.00;;;7.79;40.82
61324;BME280;47203;48.428;11.974;2023-03-04T04:11:02;97065.25;;;7.79;40.73
61324;BME280;47203;48.428;11.974;2023-03-04T04:13:07;97065.25;;;7.79;40.66
61324;BME280;47203;48.428;11.974;2023-03-04T04:15:11;97060.47;;;7.76;40.86
61324;BME280;47203;48.428;11.974;2023-03-04T04:17:16;97061.75;;;7.73;40.55
61324;BME280;47203;48.428;11.974;2023-03-04T04:19:20;97061.44;;;7.69;40.87
61324;BME280;47203;48.428;11.974;2023-03-04T04:21:25;97069.28;;;7.69;40.96
61324;BME280;47203;48.428;11.974;2023-03-04T04:23:32;97065.06;;;7.68;40.74
61324;BME280;47203;48.428;11.974;2023-03-04T04:25:36;97058.25;;;7.67;40.91
61324;BME280;47203;48.428;11.974;2023-03-04T04:27:41;97054.84;;;7.67;40.66
61324;BME280;47203;48.428;11.974;2023-03-04T04:29:45;97060.31;;;7.65;40.78
61324;BME280;47203;48.428;11.974;2023-03-04T04:31:49;97059.25;;;7.66;40.90
61324;BME280;47203;48.428;11.974;2023-03-04T04:33:54;97056.63;;;7.66;40.73
61324;BME280;47203;48.428;11.974;2023-03-04T04:35:58;97058.25;;;7.67;40.76
61324;BME280;47203;48.428;11.974;2023-03-04T04:38:04;97049.84;;;7.65;40.87
61324;BME280;47203;48.428;11.974;2023-03-04T04:40:11;97053.47;;;7.64;40.67
61324;BME280;47203;48.428;11.974;2023-03-04T04:42:17;97048.47;;;7.63;40.90
61324;BME280;47203;48.428;11.974;2023-03-04T04:44:21;97053.72;;;7.63;40.60
61324;BME280;47203;48.428;11.974;2023-03-04T04:46:25;97056.56;;;7.61;40.91
61324;BME280;47203;48.428;11.974;2023-03-04T04:48:30;97054.72;;;7.62;40.81
61324;BME280;47203;48.428;11.974;2023-03-04T04:50:34;97052.34;;;7.60;40.92
61324;BME280;47203;48.428;11.974;2023-03-04T04:52:39;97051.56;;;7.60;40.82
61324;BME280;47203;48.428;11.974;2023-03-04T04:54:43;97053.63;;;7.58;40.82
61324;BME280;47203;48.428;11.974;2023-03-04T04:56:50;97059.09;;;7.56;40.59
61324;BME280;47203;48.428;11.974;2023-03-04T04:58:55;97052.53;;;7.54;40.61
61324;BME280;47203;48.428;11.974;2023-03-04T05:01:00;97052.19;;;7.50;40.77
61324;BME280;47203;48.428;11.974;2023-03-04T05:03:05;97052.41;;;7.48;40.71
61324;BME280;47203;48.428;11.974;2023-03-04T05:05:09;97051.88;;;7.46;40.98
61324;BME280;47203;48.428;11.974;2023-03-04T05:07:14;97059.97;;;7.45;40.75
61324;BME280;47203;48.428;11.974;2023-03-04T05:09:18;97051.28;;;7.44;41.01
61324;BME280;47203;48.428;11.974;2023-03-04T05:11:23;97054.72;;;7.45;40.84
61324;BME280;47203;48.428;11.974;2023-03-04T05:13:30;97058.91;;;7.46;40.92
61324;BME280;47203;48.428;11.974;2023-03-04T05:15:36;97056.53;;;7.44;40.64
61324;BME280;47203;48.428;11.974;2023-03-04T05:17:40;97061.00;;;7.44;40.88
61324;BME280;47203;48.428;11.974;2023-03-04T05:19:45;97052.59;;;7.42;40.85
61324;BME280;47203;48.428;11.974;2023-03-04T05:21:49;97060.09;;;7.38;40.69
61324;BME280;47203;48.428;11.974;2023-03-04T05:23:53;97061.59;;;7.34;41.00
61324;BME280;47203;48.428;11.974;2023-03-04T05:25:58;97063.66;;;7.32;40.80
61324;BME280;47203;48.428;11.974;2023-03-04T05:28:03;97068.31;;;7.30;40.96
61324;BME280;47203;48.428;11.974;2023-03-04T05:30:15;97066.41;;;7.25;40.88
61324;BME280;47203;48.428;11.974;2023-03-04T05:32:20;97070.28;;;7.23;41.13
61324;BME280;47203;48.428;11.974;2023-03-04T05:34:24;97061.63;;;7.22;41.09
61324;BME280;47203;48.428;11.974;2023-03-04T05:36:28;97070.75;;;7.20;41.16
61324;BME280;47203;48.428;11.974;2023-03-04T05:38:33;97069.19;;;7.19;41.07
61324;BME280;47203;48.428;11.974;2023-03-04T05:40:38;97065.19;;;7.16;41.22
61324;BME280;47203;48.428;11.974;2023-03-04T05:42:43;97065.44;;;7.14;41.01
61324;BME280;47203;48.428;11.974;2023-03-04T05:44:47;97066.22;;;7.15;40.90
61324;BME280;47203;48.428;11.974;2023-03-04T05:46:54;97074.88;;;7.15;40.84
61324;BME280;47203;48.428;11.974;2023-03-04T05:48:58;97071.44;;;7.15;40.98
61324;BME280;47203;48.428;11.974;2023-03-04T05:51:03;97063.59;;;7.15;41.20
61324;BME280;47203;48.428;11.974;2023-03-04T05:53:08;97070.31;;;7.11;40.94
61324;BME280;47203;48.428;11.974;2023-03-04T05:55:12;97064.78;;;7.07;40.84
61324;BME280;47203;48.428;11.974;2023-03-04T05:57:17;97074.34;;;7.02;41.07
61324;BME280;47203;48.428;11.974;2023-03-04T05:59:21;97066.97;;;6.98;41.08
61324;BME280;47203;48.428;11.974;2023-03-04T06:01:26;97069.81;;;6.97;41.09
61324;BME280;47203;48.428;11.974;2023-03-04T06:03:34;97078.13;;;6.94;40.93
61324;BME280;47203;48.428;11.974;2023-03-04T06:05:39;97079.16;;;6.93;40.97
61324;BME280;47203;48.428;11.974;2023-03-04T06:07:43;97075.16;;;6.90;41.05
61324;BME280;47203;48.428;11.974;2023-03-04T06:09:48;97081.44;;;6.89;41.33
61324;BME280;47203;48.428;11.974;2023-03-04T06:11:52;97080.84;;;6.87;41.11
61324;BME280;47203;48.428;11.974;2023-03-04T06:13:56;97080.78;;;6.82;41.37
61324;BME280;47203;48.428;11.974;2023-03-04T06:16:01;97081.22;;;6.79;41.07
61324;BME280;47203;48.428;11.974;2023-03-04T06:18:06;97082.72;;;6.75;41.19
61324;BME280;47203;48.428;11.974;2023-03-04T06:20:14;97086.34;;;6.74;41.42
61324;BME280;47203;48.428;11.974;2023-03-04T06:22:19;97082.38;;;6.71;41.48
61324;BME280;47203;48.428;11.974;2023-03-04T06:24:23;97090.78;;;6.73;41.21
61324;BME280;47203;48.428;11.974;2023-03-04T06:26:28;97088.72;;;6.75;41.41
61324;BME280;47203;48.428;11.974;2023-03-04T06:28:33;97102.38;;;6.77;41.23
61324;BME280;47203;48.428;11.974;2023-03-04T06:30:37;97099.53;;;6.79;41.43
61324;BME280;47203;48.428;11.974;2023-03-04T06:32:42;97095.88;;;6.80;41.15
61324;BME280;47203;48.428;11.974;2023-03-04T06:34:48;97101.47;;;6.84;41.44
61324;BME280;47203;48.428;11.974;2023-03-04T06:36:55;97096.78;;;6.86;41.09
61324;BME280;47203;48.428;11.974;2023-03-04T06:39:00;97102.16;;;6.91;41.04
61324;BME280;47203;48.428;11.974;2023-03-04T06:41:05;97101.09;;;6.92;41.31
61324;BME280;47203;48.428;11.974;2023-03-04T06:43:10;97102.94;;;6.91;41.08
61324;BME280;47203;48.428;11.974;2023-03-04T06:45:14;97107.16;;;6.92;41.17
61324;BME280;47203;48.428;11.974;2023-03-04T06:47:19;97109.75;;;6.92;41.36
61324;BME280;47203;48.428;11.974;2023-03-04T06:49:23;97107.94;;;6.93;41.16
61324;BME280;47203;48.428;11.974;2023-03-04T06:51:27;97112.69;;;6.96;41.23
61324;BME280;47203;48.428;11.974;2023-03-04T06:53:35;97110.88;;;6.96;41.29
61324;BME280;47203;48.428;11.974;2023-03-04T06:55:39;97117.47;;;6.99;41.27
61324;BME280;47203;48.428;11.974;2023-03-04T06:57:44;97121.22;;;7.03;41.35
61324;BME280;47203;48.428;11.974;2023-03-04T06:59:49;97123.59;;;7.05;41.33
61324;BME280;47203;48.428;11.974;2023-03-04T07:01:53;97126.34;;;7.10;41.51
61324;BME280;47203;48.428;11.974;2023-03-04T07:03:57;97114.59;;;7.12;41.22
61324;BME280;47203;48.428;11.974;2023-03-04T07:06:02;97114.34;;;7.14;41.17
61324;BME280;47203;48.428;11.974;2023-03-04T07:08:07;97123.03;;;7.14;41.45
61324;BME280;47203;48.428;11.974;2023-03-04T07:10:14;97128.81;;;7.16;41.36
61324;BME280;47203;48.428;11.974;2023-03-04T07:12:18;97134.41;;;7.20;41.33
61324;BME280;47203;48.428;11.974;2023-03-04T07:14:22;97134.16;;;7.22;41.33
61324;BME280;47203;48.428;11.974;2023-03-04T07:16:28;97131.06;;;7.25;41.39
61324;BME280;47203;48.428;11.974;2023-03-04T07:18:33;97131.06;;;7.25;41.31
61324;BME280;47203;48.428;11.974;2023-03-04T07:20:37;97135.84;;;7.28;41.60
61324;BME280;47203;48.428;11.974;2023-03-04T07:22:42;97136.41;;;7.30;41.67
61324;BME280;47203;48.428;11.974;2023-03-04T07:24:46;97138.00;;;7.31;41.51
61324;BME280;47203;48.428;11.974;2023-03-04T07:26:53;97141.19;;;7.33;41.36
61324;BME280;47203;48.428;11.974;2023-03-04T07:28:58;97136.28;;;7.37;41.62
61324;BME280;47203;48.428;11.974;2023-03-04T07:31:09;97144.56;;;7.45;41.62
61324;BME280;47203;48.428;11.974;2023-03-04T07:33:14;97144.19;;;7.54;41.62
61324;BME280;47203;48.428;11.974;2023-03-04T07:35:18;97137.22;;;7.59;41.48
61324;BME280;47203;48.428;11.974;2023-03-04T07:37:23;97143.09;;;7.66;41.52
61324;BME280;47203;48.428;11.974;2023-03-04T07:39:27;97145.81;;;7.72;41.61
61324;BME280;47203;48.428;11.974;2023-03-04T07:41:32;97155.13;;;7.79;41.58
61324;BME280;47203;48.428;11.974;2023-03-04T07:43:40;97151.56;;;7.85;41.30
61324;BME280;47203;48.428;11.974;2023-03-04T07:45:44;97153.81;;;7.94;41.56
61324;BME280;47203;48.428;11.974;2023-03-04T07:47:49;97155.25;;;8.01;41.51
61324;BME280;47203;48.428;11.974;2023-03-04T07:49:54;97163.28;;;8.12;41.21
61324;BME280;47203;48.428;11.974;2023-03-04T07:52:01;97163.91;;;8.19;41.30
61324;BME280;47203;48.428;11.974;2023-03-04T07:54:05;97159.50;;;8.19;41.45
61324;BME280;47203;48.428;11.974;2023-03-04T07:56:10;97155.38;;;8.24;41.51
61324;BME280;47203;48.428;11.974;2023-03-04T07:58:15;97162.28;;;8.30;41.36
61324;BME280;47203;48.428;11.974;2023-03-04T08:00:24;97164.25;;;8.39;41.30
61324;BME280;47203;48.428;11.974;2023-03-04T08:02:28;97166.75;;;8.46;41.31
61324;BME280;47203;48.428;11.974;2023-03-04T08:04:33;97170.50;;;8.50;41.61
61324;BME280;47203;48.428;11.974;2023-03-04T08:06:39;97163.50;;;8.56;41.59
61324;BME280;47203;48.428;11.974;2023-03-04T08:08:44;97163.78;;;8.60;41.60
61324;BME280;47203;48.428;11.974;2023-03-04T08:10:48;97164.13;;;8.63;41.60
61324;BME280;47203;48.428;11.974;2023-03-04T08:12:53;97159.75;;;8.69;41.76
61324;BME280;47203;48.428;11.974;2023-03-04T08:14:57;97164.56;;;8.77;41.59
61324;BME280;47203;48.428;11.974;2023-03-04T08:17:04;97160.97;;;8.83;41.56
61324;BME280;47203;48.428;11.974;2023-03-04T08:19:10;97168.78;;;8.95;41.39
61324;BME280;47203;48.428;11.974;2023-03-04T08:21:15;97165.78;;;9.08;41.80
61324;BME280;47203;48.428;11.974;2023-03-04T08:23:21;97164.31;;;9.18;41.39
61324;BME280;47203;48.428;11.974;2023-03-04T08:25:26;97165.78;;;9.31;41.69
61324;BME280;47203;48.428;11.974;2023-03-04T08:27:30;97166.16;;;9.39;41.53
61324;BME280;47203;48.428;11.974;2023-03-04T08:29:34;97169.41;;;9.47;41.42
61324;BME280;47203;48.428;11.974;2023-03-04T08:31:39;97165.03;;;9.57;41.42
61324;BME280;47203;48.428;11.974;2023-03-04T08:33:51;97164.13;;;9.69;41.33
61324;BME280;47203;48.428;11.974;2023-03-04T08:35:57;97169.47;;;9.79;41.36
61324;BME280;47203;48.428;11.974;2023-03-04T08:38:01;97169.06;;;9.92;41.63
61324;BME280;47203;48.428;11.974;2023-03-04T08:40:06;97174.75;;;10.06;41.22
61324;BME280;47203;48.428;11.974;2023-03-04T08:42:11;97169.84;;;10.20;41.35
61324;BME280;47203;48.428;11.974;2023-03-04T08:44:16;97161.78;;;10.32;41.58
61324;BME280;47203;48.428;11.974;2023-03-04T08:46:20;97162.97;;;10.41;41.40
61324;BME280;47203;48.428;11.974;2023-03-04T08:48:25;97169.38;;;10.56;41.25
61324;BME280;47203;48.428;11.974;2023-03-04T08:50:32;97162.66;;;10.75;41.26
61324;BME280;47203;48.428;11.974;2023-03-04T08:52:37;97169.09;;;10.95;41.03
61324;BME280;47203;48.428;11.974;2023-03-04T08:54:41;97177.34;;;11.14;40.93
61324;BME280;47203;48.428;11.974;2023-03-04T08:56:46;97176.41;;;11.35;41.03
61324;BME280;47203;48.428;11.974;2023-03-04T08:58:50;97174.91;;;11.55;40.81
61324;BME280;47203;48.428;11.974;2023-03-04T09:00:55;97171.25;;;11.77;40.52
61324;BME280;47203;48.428;11.974;2023-03-04T09:02:59;97172.91;;;11.98;40.75
61324;BME280;47203;48.428;11.974;2023-03-04T09:05:05;97167.66;;;12.19;40.49
61324;BME280;47203;48.428;11.974;2023-03-04T09:07:12;97174.25;;;12.42;40.14
61324;BME280;47203;48.428;11.974;2023-03-04T09:09:16;97167.41;;;12.62;40.37
61324;BME280;47203;48.428;11.974;2023-03-04T09:11:21;97165.78;;;12.76;40.30
61324;BME280;47203;48.428;11.974;2023-03-04T09:13:27;97158.91;;;12.80;40.30
61324;BME280;47203;48.428;11.974;2023-03-04T09:15:31;97157.84;;;12.91;40.17
61324;BME280;47203;48.428;11.974;2023-03-04T09:17:37;97165.19;;;13.05;40.08
61324;BME280;47203;48.428;11.974;2023-03-04T09:19:42;97160.66;;;13.26;40.09
61324;BME280;47203;48.428;11.974;2023-03-04T09:21:46;97160.81;;;13.50;40.29
61324;BME280;47203;48.428;11.974;2023-03-04T09:23:53;97154.09;;;13.73;40.03
61324;BME280;47203;48.428;11.974;2023-03-04T09:25:58;97164.28;;;13.95;39.93
61324;BME280;47203;48.428;11.974;2023-03-04T09:28:02;97164.75;;;14.08;39.70
61324;BME280;47203;48.428;11.974;2023-03-04T09:30:07;97155.13;;;14.17;39.76
61324;BME280;47203;48.428;11.974;2023-03-04T09:32:12;97155.75;;;14.38;39.66
61324;BME280;47203;48.428;11.974;2023-03-04T09:34:17;97150.03;;;14.60;39.72
61324;BME280;47203;48.428;11.974;2023-03-04T09:36:21;97155.09;;;14.86;39.18
61324;BME280;47203;48.428;11.974;2023-03-04T09:38:26;97146.97;;;15.26;39.14
61324;BME280;47203;48.428;11.974;2023-03-04T09:40:36;97161.28;;;15.68;38.72
61324;BME280;47203;48.428;11.974;2023-03-04T09:42:44;97145.19;;;16.02;38.70
61324;BME280;47203;48.428;11.974;2023-03-04T09:44:49;97145.56;;;16.29;38.39
61324;BME280;47203;48.428;11.974;2023-03-04T09:46:56;97153.03;;;16.60;38.08
61324;BME280;47203;48.428;11.974;2023-03-04T09:49:02;97157.63;;;16.87;37.96
61324;BME280;47203;48.428;11.974;2023-03-04T09:51:11;97160.63;;;17.13;37.86
61324;BME280;47203;48.428;11.974;2023-03-04T09:53:22;97152.72;;;17.36;38.13
61324;BME280;47203;48.428;11.974;2023-03-04T09:55:30;97162.25;;;17.51;38.13
61324;BME280;47203;48.428;11.974;2023-03-04T09:57:42;97164.13;;;17.64;37.99
61324;BME280;47203;48.428;11.974;2023-03-04T09:59:48;97159.25;;;17.80;38.31
61324;BME280;47203;48.428;11.974;2023-03-04T10:01:55;97156.56;;;17.94;38.24
61324;BME280;47203;48.428;11.974;2023-03-04T10:04:02;97156.69;;;18.11;38.46
61324;BME280;47203;48.428;11.974;2023-03-04T10:06:06;97151.31;;;18.25;38.55
61324;BME280;47203;48.428;11.974;2023-03-04T10:08:18;97154.53;;;18.36;38.07
61324;BME280;47203;48.428;11.974;2023-03-04T10:10:25;97152.69;;;18.45;38.39
61324;BME280;47203;48.428;11.974;2023-03-04T10:12:33;97152.75;;;18.54;38.28
61324;BME280;47203;48.428;11.974;2023-03-04T10:14:44;97151.22;;;18.62;38.41
61324;BME280;47203;48.428;11.974;2023-03-04T10:16:52;97148.91;;;18.69;38.59
61324;BME280;47203;48.428;11.974;2023-03-04T10:19:01;97140.66;;;18.79;38.87
61324;BME280;47203;48.428;11.974;2023-03-04T10:21:12;97146.06;;;18.88;38.86
61324;BME280;47203;48.428;11.974;2023-03-04T10:23:21;97147.94;;;18.96;39.03
61324;BME280;47203;48.428;11.974;2023-03-04T10:25:28;97144.53;;;19.05;38.72
61324;BME280;47203;48.428;11.974;2023-03-04T10:27:32;97147.06;;;19.10;38.77
61324;BME280;47203;48.428;11.974;2023-03-04T10:29:38;97140.81;;;19.14;38.74
61324;BME280;47203;48.428;11.974;2023-03-04T10:31:45;97145.53;;;19.17;38.81
61324;BME280;47203;48.428;11.974;2023-03-04T10:33:50;97146.78;;;19.20;38.86
61324;BME280;47203;48.428;11.974;2023-03-04T10:35:55;97146.19;;;19.23;38.78
61324;BME280;47203;48.428;11.974;2023-03-04T10:38:03;97149.31;;;19.25;38.71
61324;BME280;47203;48.428;11.974;2023-03-04T10:40:16;97149.00;;;19.27;38.70
61324;BME280;47203;48.428;11.974;2023-03-04T10:42:30;97147.09;;;19.27;39.03
61324;BME280;47203;48.428;11.974;2023-03-04T10:44:40;97152.44;;;19.27;38.68
61324;BME280;47203;48.428;11.974;2023-03-04T10:46:48;97148.53;;;19.25;38.73
61324;BME280;47203;48.428;11.974;2023-03-04T10:48:52;97139.72;;;19.24;38.70
61324;BME280;47203;48.428;11.974;2023-03-04T10:51:09;97140.03;;;19.23;38.53
61324;BME280;47203;48.428;11.974;2023-03-04T10:53:21;97138.78;;;19.20;38.72
61324;BME280;47203;48.428;11.974;2023-03-04T10:55:29;97135.81;;;19.22;38.66
61324;BME280;47203;48.428;11.974;2023-03-04T10:57:34;97138.94;;;19.24;39.09
61324;BME280;47203;48.428;11.974;2023-03-04T10:59:41;97137.56;;;19.26;38.89
61324;BME280;47203;48.428;11.974;2023-03-04T11:01:50;97129.53;;;19.26;39.10